cubair logo

 

Steve KrogSteve Krog

Availability:

If it's not raining I'm flying!

About Steve:

Born and raised in southwestern Minnesota, Steve "migrated" to Wisconsin in 1982 and continues to reside in Hartford, Wisconsin. He has been interested in airplanes since he was old enough to know what they were, and family friend and mentor Carroll Bressler introduced him to the pleasure of aviation by giving him his first ride when he was 12 years old. Steve has been "hooked on aviation" ever since. He earned his private certificate in 1969 and completed his training in 1972, obtaining commercial and flight instructor certificates as well as instrument and multiengine ratings. Steve retired from and sold his marketing communications firm in early 2007 and established Cub Air Flight LLC, a primary flight school for sport and private pilot students who want to learn in a tailwheel airplane. He also provides tailwheel training for vintage aircraft owners. Steve and his wife, Sharon, who also flies, own several aircraft including a 1941 Piper J-5A Cruiser (currently being restored), a 1938, 1945, and a 1946 Piper J-3, a 1946 Piper PA-12 Super Cruiser, and a 1947 Luscombe 8E. Steve and Sharon have been AirVenture volunteers for well more than 12 years. They also own and manage the Cub Club, the Luscombe Association, and the Taylorcraft Owner's Club, three very active type clubs.

 

Come fly with us and feel the freedom of
flying, the way it's supposed to be!


"Old School Is Still Cool!"

 

Our Instructors

Steve Krog

Find Us Here!

Hartford Municipal

Airport (KHXF)

4200 Highway U

Hartford, WI 53027

Our Staff

Steve Krog
Sharon Krog
Jamie Weber
Chris Hibben

Oshkosh Weather

[Source: ADDS]
METAR
KOSH 202253Z 18007KT 10SM CLR 18/09 A2996 RMK AO2 SLP142 T01780089 =
TAF

West Bend Weather

[Source: ADDS]
METAR
KETB 202255Z AUTO 17005KT 10SM CLR 21/07 A3000 RMK AO2 =
TAF

Juneau Weather

[Source: ADDS]
METAR
KUNU 202255Z AUTO 16008KT 10SM CLR 20/08 A2999 RMK AO2 T02010082 =
TAF

Fond Du Lac Weather

[Source: ADDS]
METAR
KFLD 202253Z AUTO 18006KT 10SM CLR 20/07 A2997 RMK AO2 SLP148 T02000072 =
TAF